Time;durP1;ratioP1;P1;durP2;ratioP2;P2;SDS_P1;SDS_P2;PMS_P1;PMS_P2;Temp;Humidity;BMP_temperature;BMP_pressure;BME280_temperature;BME280_humidity;BME280_pressure;Samples;Min_cycle;Max_cycle;Signal;HPM_P1;HPM_P2
2022/03/30 00:01:29;;;;;;;21.65;11.32;;;15.10;66.10;;;;;;4207283;28;20058;-64
2022/03/30 00:03:51;;;;;;;18.17;9.95;;;15.10;66.10;;;;;;4191949;28;20078;-64
2022/03/30 00:06:13;;;;;;;24.95;11.85;;;15.10;66.20;;;;;;4191995;28;20416;-63
2022/03/30 00:08:35;;;;;;;18.40;10.63;;;15.10;66.20;;;;;;4190137;28;20075;-64
2022/03/30 00:10:58;;;;;;;23.85;11.68;;;15.10;66.30;;;;;;4206334;28;20511;-64
2022/03/30 00:13:21;;;;;;;21.58;11.20;;;15.10;66.40;;;;;;4208257;28;20048;-64
2022/03/30 00:15:43;;;;;;;20.35;10.35;;;15.10;66.40;;;;;;4208428;28;20407;-64
2022/03/30 00:18:05;;;;;;;19.48;10.63;;;15.10;66.40;;;;;;4208407;28;20506;-64
2022/03/30 00:20:27;;;;;;;20.58;10.00;;;15.00;66.30;;;;;;4208874;28;20117;-64
2022/03/30 00:22:49;;;;;;;24.00;10.68;;;15.00;66.30;;;;;;4208474;28;20044;-64
2022/03/30 00:25:12;;;;;;;21.00;11.02;;;15.00;66.40;;;;;;4208550;28;20055;-65
2022/03/30 00:27:35;;;;;;;19.48;10.68;;;15.00;66.50;;;;;;4208452;28;20421;-64
2022/03/30 00:29:58;;;;;;;19.13;10.68;;;15.00;66.60;;;;;;4208301;28;20051;-64
2022/03/30 00:32:20;;;;;;;20.67;10.50;;;15.00;66.60;;;;;;4206668;28;20048;-63
2022/03/30 00:34:43;;;;;;;22.58;10.70;;;15.00;66.60;;;;;;4209439;28;20072;-64
2022/03/30 00:37:06;;;;;;;19.73;10.48;;;15.00;66.70;;;;;;4193748;28;20110;-63
2022/03/30 00:39:28;;;;;;;22.20;10.68;;;15.00;66.60;;;;;;4195035;28;20044;-63
2022/03/30 00:41:50;;;;;;;26.38;11.52;;;15.00;66.60;;;;;;4201659;28;20047;-64
2022/03/30 00:44:14;;;;;;;18.27;11.23;;;15.00;66.70;;;;;;4211676;28;20051;-64
2022/03/30 00:46:42;;;;;;;21.70;10.85;;;15.00;66.70;;;;;;4211850;28;20140;-64
2022/03/30 00:49:05;;;;;;;22.70;10.85;;;15.00;66.80;;;;;;4209912;28;20098;-63
2022/03/30 00:51:27;;;;;;;23.70;11.40;;;15.00;66.80;;;;;;4211846;28;20116;-63
2022/03/30 00:53:49;;;;;;;22.40;11.07;;;15.00;66.90;;;;;;4211432;28;20497;-66
2022/03/30 00:56:11;;;;;;;19.13;11.52;;;15.00;67.00;;;;;;4211815;28;20066;-67
2022/03/30 00:58:34;;;;;;;25.70;11.95;;;15.00;67.00;;;;;;4210051;28;20051;-66
2022/03/30 01:00:58;;;;;;;24.83;10.98;;;15.00;67.00;;;;;;4210402;28;20059;-67
2022/03/30 01:03:22;;;;;;;23.27;10.95;;;15.00;68.00;;;;;;4210614;28;20101;-67
2022/03/30 01:05:44;;;;;;;23.23;11.63;;;15.00;67.10;;;;;;4210424;28;20055;-68
2022/03/30 01:08:06;;;;;;;22.92;12.25;;;15.00;68.00;;;;;;4209986;28;20056;-67
2022/03/30 01:10:29;;;;;;;24.05;11.43;;;15.00;67.20;;;;;;4211669;28;20047;-67
2022/03/30 01:12:54;;;;;;;22.98;11.52;;;14.90;67.10;;;;;;4211022;28;20044;-67
2022/03/30 01:15:17;;;;;;;18.88;10.65;;;14.90;68.00;;;;;;4211049;28;20066;-67
2022/03/30 01:17:39;;;;;;;24.20;10.98;;;14.90;67.20;;;;;;4211441;28;20036;-66
2022/03/30 01:20:03;;;;;;;26.10;11.95;;;14.90;67.20;;;;;;4211371;28;20047;-66
2022/03/30 01:22:27;;;;;;;22.88;10.57;;;14.90;67.30;;;;;;4210983;28;20094;-67
2022/03/30 01:24:49;;;;;;;20.58;11.18;;;14.90;67.40;;;;;;4210871;28;20098;-66
2022/03/30 01:27:12;;;;;;;21.88;11.40;;;14.90;67.50;;;;;;4210631;28;20052;-67
2022/03/30 01:32:29;;;;;;;18.25;10.32;;;14.90;67.50;;;;;;4165803;28;20573;-66
2022/03/30 01:34:51;;;;;;;21.08;10.65;;;14.90;67.60;;;;;;4193484;28;20048;-66
2022/03/30 01:37:14;;;;;;;21.40;10.40;;;14.90;67.60;;;;;;4209064;28;20055;-67
2022/03/30 01:39:38;;;;;;;25.20;11.85;;;14.90;67.60;;;;;;4210718;28;20051;-66
2022/03/30 01:42:00;;;;;;;23.63;11.10;;;14.90;67.70;;;;;;4209608;28;20462;-67
2022/03/30 01:44:22;;;;;;;21.17;10.40;;;14.90;67.80;;;;;;4210588;28;20105;-66
2022/03/30 01:46:44;;;;;;;20.90;10.27;;;14.90;67.70;;;;;;4209098;28;20135;-67
2022/03/30 01:49:07;;;;;;;20.30;9.88;;;14.90;67.70;;;;;;4210353;28;20040;-67
2022/03/30 01:51:29;;;;;;;25.48;10.95;;;14.90;67.80;;;;;;4210709;28;20113;-68
2022/03/30 01:53:51;;;;;;;20.50;10.02;;;14.80;67.80;;;;;;4210497;28;20054;-67
2022/03/30 01:56:14;;;;;;;21.45;10.68;;;14.90;67.90;;;;;;4209759;28;20411;-67
2022/03/30 01:58:37;;;;;;;18.23;9.00;;;14.80;67.80;;;;;;4210265;28;20139;-67
2022/03/30 02:01:00;;;;;;;20.95;10.07;;;14.80;67.90;;;;;;4210426;28;20080;-67
2022/03/30 02:03:22;;;;;;;21.17;9.80;;;14.90;68.00;;;;;;4210540;28;20154;-69
2022/03/30 02:05:44;;;;;;;16.33;9.05;;;14.80;68.00;;;;;;4210484;28;20048;-67
2022/03/30 02:08:07;;;;;;;19.33;9.55;;;14.80;67.90;;;;;;4210258;28;20200;-67
2022/03/30 02:10:29;;;;;;;18.40;8.85;;;14.80;68.10;;;;;;4209114;28;20098;-67
2022/03/30 02:12:53;;;;;;;17.30;8.13;;;14.80;68.00;;;;;;4210305;28;20052;-67
2022/03/30 02:15:15;;;;;;;19.80;8.75;;;14.80;68.00;;;;;;4210071;28;20051;-67
2022/03/30 02:17:36;;;;;;;20.77;9.23;;;14.80;68.00;;;;;;4210065;28;20097;-67
2022/03/30 02:19:59;;;;;;;22.25;9.98;;;14.80;68.00;;;;;;4210234;28;20051;-67
2022/03/30 02:22:22;;;;;;;21.15;9.52;;;14.80;68.10;;;;;;4210238;28;20071;-67
2022/03/30 02:24:44;;;;;;;21.65;9.65;;;14.80;68.30;;;;;;4210616;27;20134;-67
2022/03/30 02:27:07;;;;;;;20.95;9.02;;;14.80;68.20;;;;;;4210366;28;20101;-67
2022/03/30 02:29:30;;;;;;;19.23;9.02;;;14.80;68.20;;;;;;4208810;28;20077;-67
2022/03/30 02:31:53;;;;;;;16.98;8.60;;;14.80;68.40;;;;;;4203344;28;20043;-67
2022/03/30 02:34:15;;;;;;;18.35;9.93;;;14.80;68.40;;;;;;4210215;28;20044;-67
2022/03/30 02:36:37;;;;;;;17.73;9.38;;;14.80;68.40;;;;;;4209772;28;20515;-67
2022/03/30 02:38:59;;;;;;;20.98;9.32;;;14.80;68.40;;;;;;4209212;28;20047;-67
2022/03/30 02:41:22;;;;;;;20.67;9.45;;;14.80;68.40;;;;;;4210238;28;20156;-67
2022/03/30 02:43:44;;;;;;;21.75;9.85;;;14.70;68.50;;;;;;4209893;28;20044;-67
2022/03/30 02:46:08;;;;;;;17.27;8.88;;;14.70;68.60;;;;;;4208214;28;20044;-67
2022/03/30 02:48:32;;;;;;;24.58;9.88;;;14.80;68.60;;;;;;4208440;28;20040;-67
2022/03/30 02:50:57;;;;;;;21.23;10.18;;;14.70;68.50;;;;;;4209958;28;20515;-67
2022/03/30 02:53:19;;;;;;;21.17;10.05;;;14.70;68.60;;;;;;4209761;28;20508;-67
2022/03/30 02:55:42;;;;;;;22.08;10.48;;;14.70;68.70;;;;;;4208296;28;20357;-67
2022/03/30 02:58:04;;;;;;;18.15;10.27;;;14.70;68.70;;;;;;4207948;28;20439;-64
2022/03/30 03:00:27;;;;;;;18.55;9.85;;;14.70;68.60;;;;;;4209169;28;20452;-64
2022/03/30 03:02:51;;;;;;;19.60;8.90;;;14.70;68.60;;;;;;4208667;28;20047;-64
2022/03/30 03:05:13;;;;;;;18.80;8.75;;;14.70;69.50;;;;;;4207968;28;20379;-64
2022/03/30 03:07:36;;;;;;;15.45;8.98;;;14.70;68.70;;;;;;4209501;28;20147;-64
2022/03/30 03:09:58;;;;;;;13.52;7.60;;;14.70;68.60;;;;;;4208931;28;20048;-64
2022/03/30 03:12:21;;;;;;;9.18;4.57;;;14.70;68.20;;;;;;4209264;28;20113;-64
2022/03/30 03:14:43;;;;;;;5.25;3.17;;;14.70;68.10;;;;;;4208814;28;20055;-64
2022/03/30 03:17:06;;;;;;;2.85;2.05;;;14.70;66.40;;;;;;4209295;28;20043;-63
2022/03/30 03:19:30;;;;;;;3.67;2.50;;;14.70;65.30;;;;;;4208883;28;20090;-63
2022/03/30 03:21:51;;;;;;;2.00;1.20;;;14.60;66.50;;;;;;4209280;28;20055;-67
2022/03/30 03:24:14;;;;;;;2.30;0.98;;;14.60;65.80;;;;;;4209498;28;20048;-67
2022/03/30 03:26:36;;;;;;;2.88;0.75;;;14.60;65.80;;;;;;4208641;28;20117;-67
2022/03/30 03:28:58;;;;;;;1.50;0.75;;;14.60;65.50;;;;;;4209358;28;20115;-67
2022/03/30 03:31:20;;;;;;;1.75;0.65;;;14.60;64.70;;;;;;4208986;28;20141;-67
2022/03/30 03:33:42;;;;;;;2.25;0.70;;;14.50;64.80;;;;;;4208992;28;20446;-64
2022/03/30 03:36:06;;;;;;;2.83;0.93;;;14.50;65.60;;;;;;4192593;28;20120;-64
2022/03/30 03:38:28;;;;;;;1.58;0.50;;;14.50;65.30;;;;;;4192671;28;20121;-64
2022/03/30 03:40:50;;;;;;;3.47;0.82;;;14.50;65.10;;;;;;4190728;28;20052;-64
2022/03/30 03:43:12;;;;;;;0.40;0.40;;;14.40;64.40;;;;;;4192453;28;20044;-64
2022/03/30 03:45:35;;;;;;;1.15;0.47;;;14.40;64.10;;;;;;4206123;28;20044;-64
2022/03/30 03:47:56;;;;;;;1.60;0.40;;;14.30;63.80;;;;;;4209164;28;20131;-64
2022/03/30 03:50:19;;;;;;;0.98;0.47;;;14.30;64.10;;;;;;4208632;28;20051;-64
2022/03/30 03:52:42;;;;;;;1.27;0.47;;;14.30;64.70;;;;;;4191894;28;20510;-64
2022/03/30 03:55:06;;;;;;;1.10;0.40;;;14.30;65.70;;;;;;4192295;28;20056;-64
2022/03/30 03:57:28;;;;;;;0.75;0.40;;;14.20;64.70;;;;;;4194834;28;20109;-64
2022/03/30 03:59:50;;;;;;;0.35;0.20;;;14.20;64.70;;;;;;4207905;28;20093;-64
2022/03/30 04:02:12;;;;;;;1.85;0.60;;;14.20;64.10;;;;;;4207216;28;20098;-65
2022/03/30 04:04:35;;;;;;;0.52;0.40;;;14.20;64.30;;;;;;4208673;28;20050;-64
2022/03/30 04:06:57;;;;;;;1.55;0.50;;;14.10;64.70;;;;;;4206591;28;20044;-64
2022/03/30 04:09:21;;;;;;;1.58;0.40;;;14.10;65.80;;;;;;4189438;28;20514;-64
2022/03/30 04:11:43;;;;;;;1.30;0.30;;;14.10;65.60;;;;;;4191908;28;20106;-64
2022/03/30 04:14:05;;;;;;;1.48;0.15;;;14.10;65.20;;;;;;4201217;28;20083;-63
2022/03/30 04:16:28;;;;;;;1.50;0.15;;;14.10;64.70;;;;;;4208234;28;20052;-64
2022/03/30 04:18:50;;;;;;;0.20;0.20;;;14.10;64.70;;;;;;4206783;28;20101;-64
2022/03/30 04:21:12;;;;;;;1.42;0.30;;;14.10;64.60;;;;;;4208716;28;20044;-64
2022/03/30 04:23:34;;;;;;;0.75;0.30;;;14.10;64.80;;;;;;4208215;28;20838;-64
2022/03/30 04:25:58;;;;;;;0.10;0.10;;;14.00;64.70;;;;;;4208393;28;20043;-64
2022/03/30 04:28:20;;;;;;;0.13;0.13;;;14.00;65.90;;;;;;4208115;28;20048;-64
2022/03/30 04:30:42;;;;;;;1.05;0.20;;;14.00;65.00;;;;;;4208397;28;20117;-64
2022/03/30 04:33:04;;;;;;;0.20;0.20;;;14.00;63.80;;;;;;4208390;28;20113;-64
2022/03/30 04:35:27;;;;;;;0.30;0.30;;;14.00;64.10;;;;;;4208551;28;20094;-67
2022/03/30 04:37:49;;;;;;;0.43;0.40;;;14.00;64.30;;;;;;4208346;28;20052;-67
2022/03/30 04:40:12;;;;;;;0.50;0.50;;;14.00;65.50;;;;;;4207968;28;20047;-67
2022/03/30 04:42:35;;;;;;;1.45;0.50;;;14.00;65.90;;;;;;4208490;28;20146;-67
2022/03/30 04:44:58;;;;;;;0.60;0.60;;;13.90;66.60;;;;;;4208663;28;20062;-67
2022/03/30 04:47:20;;;;;;;0.60;0.60;;;13.90;66.80;;;;;;4208805;28;20131;-67
2022/03/30 04:49:43;;;;;;;0.50;0.50;;;14.00;66.20;;;;;;4208662;28;20131;-67
2022/03/30 04:52:05;;;;;;;0.50;0.50;;;14.00;65.40;;;;;;4208228;28;20138;-67
2022/03/30 04:54:27;;;;;;;0.50;0.50;;;14.00;65.10;;;;;;4208229;28;20040;-67
2022/03/30 04:56:51;;;;;;;1.27;0.40;;;13.90;65.00;;;;;;4207713;28;20121;-66
2022/03/30 04:59:15;;;;;;;0.57;0.40;;;13.90;65.20;;;;;;4191557;28;20572;-66
2022/03/30 05:01:37;;;;;;;0.60;0.60;;;13.90;66.10;;;;;;4191386;28;20106;-66
2022/03/30 05:04:00;;;;;;;0.57;0.50;;;13.90;66.90;;;;;;4191922;28;20499;-67
2022/03/30 05:06:22;;;;;;;0.85;0.47;;;13.90;67.90;;;;;;4191617;28;20114;-67
2022/03/30 05:08:44;;;;;;;0.30;0.30;;;13.90;66.40;;;;;;4191974;28;20049;-67
2022/03/30 05:11:06;;;;;;;0.40;0.40;;;13.90;65.70;;;;;;4207475;28;20168;-67
2022/03/30 05:13:29;;;;;;;0.82;0.68;;;14.00;66.30;;;;;;4190313;28;20073;-67
2022/03/30 05:15:52;;;;;;;2.60;0.50;;;14.00;66.80;;;;;;4191854;28;20635;-67
2022/03/30 05:18:14;;;;;;;1.20;0.50;;;13.90;67.10;;;;;;4191546;28;20420;-67
2022/03/30 05:20:36;;;;;;;0.55;0.50;;;14.00;66.90;;;;;;4200045;28;20504;-69
2022/03/30 05:22:59;;;;;;;0.43;0.43;;;14.00;67.60;;;;;;4211226;28;20082;-69
2022/03/30 05:25:21;;;;;;;0.50;0.50;;;14.00;67.80;;;;;;4211181;28;20471;-69
2022/03/30 05:27:43;;;;;;;1.02;0.63;;;14.00;65.00;;;;;;4198707;28;20533;-69
2022/03/30 05:30:07;;;;;;;3.13;0.93;;;14.00;64.60;;;;;;4194040;28;20385;-69
2022/03/30 05:32:31;;;;;;;1.00;0.60;;;13.90;64.50;;;;;;4194934;28;20048;-68
2022/03/30 05:34:53;;;;;;;1.25;0.47;;;13.90;65.00;;;;;;4194875;28;20135;-68
2022/03/30 05:37:19;;;;;;;1.42;1.00;;;13.90;64.40;;;;;;4221440;28;20097;-66
2022/03/30 05:39:41;;;;;;;2.25;0.60;;;13.90;64.80;;;;;;4209729;28;20458;-65
2022/03/30 05:42:05;;;;;;;2.30;0.80;;;13.90;65.10;;;;;;4193735;28;20059;-65
2022/03/30 05:44:27;;;;;;;1.85;0.60;;;14.00;65.30;;;;;;4210265;28;20044;-67
2022/03/30 05:46:49;;;;;;;1.05;0.90;;;14.00;65.10;;;;;;4209465;28;20480;-67
2022/03/30 05:49:12;;;;;;;2.03;0.82;;;14.00;64.20;;;;;;4209212;28;20054;-68
2022/03/30 05:51:35;;;;;;;4.15;0.60;;;14.00;63.30;;;;;;4209829;28;23087;-67
2022/03/30 05:53:57;;;;;;;2.08;0.60;;;14.00;63.50;;;;;;4212419;27;20055;-66
2022/03/30 05:56:59;;;;;;;1.67;1.00;;;14.00;63.30;;;;;;4217353;28;20380;-66
2022/03/30 05:59:02;;;;;;;3.85;1.40;;;13.90;62.90;;;;;;4216548;27;20053;-67
2022/03/30 06:01:24;;;;;;;2.92;0.80;;;13.90;62.80;;;;;;4208987;28;20036;-67
2022/03/30 06:03:46;;;;;;;1.17;1.00;;;13.90;64.20;;;;;;4210198;28;20704;-67
2022/03/30 06:06:11;;;;;;;1.85;0.90;;;13.90;64.70;;;;;;4210611;28;20123;-67
2022/03/30 06:08:34;;;;;;;0.93;0.68;;;13.90;64.90;;;;;;4224033;27;20085;-67
2022/03/30 06:10:55;;;;;;;2.20;0.90;;;13.90;66.00;;;;;;4210473;28;20048;-67
2022/03/30 06:13:18;;;;;;;1.02;0.88;;;13.80;66.50;;;;;;4210295;28;20075;-67
2022/03/30 06:15:40;;;;;;;0.90;0.90;;;13.80;66.10;;;;;;4210551;28;20391;-67
2022/03/30 06:18:05;;;;;;;2.15;0.85;;;13.90;64.60;;;;;;4209974;28;20098;-66
2022/03/30 06:20:28;;;;;;;1.70;0.90;;;13.90;65.70;;;;;;4210347;28;20052;-66
2022/03/30 06:22:52;;;;;;;1.08;0.80;;;13.80;65.50;;;;;;4210330;28;20050;-67
2022/03/30 06:25:16;;;;;;;2.25;1.20;;;13.90;66.40;;;;;;4219642;28;20357;-66
2022/03/30 06:27:38;;;;;;;2.22;0.77;;;13.90;66.90;;;;;;4210003;28;20484;-66
2022/03/30 06:30:00;;;;;;;4.47;0.90;;;13.80;64.10;;;;;;4210507;28;20052;-66
2022/03/30 06:32:22;;;;;;;2.80;1.15;;;13.80;64.90;;;;;;4209512;28;20040;-66
2022/03/30 06:34:44;;;;;;;1.90;1.02;;;13.80;66.00;;;;;;4210175;28;20048;-66
2022/03/30 06:37:07;;;;;;;4.47;0.95;;;13.90;65.50;;;;;;4209906;28;20151;-66
2022/03/30 06:39:31;;;;;;;1.30;0.70;;;13.90;64.60;;;;;;4206297;28;20506;-67
2022/03/30 06:41:57;;;;;;;4.55;1.48;;;13.80;64.30;;;;;;4193367;28;20392;-66
2022/03/30 06:44:19;;;;;;;1.92;1.25;;;13.80;63.20;;;;;;4204174;28;20048;-66
2022/03/30 06:46:41;;;;;;;2.60;1.10;;;13.80;62.30;;;;;;4224309;27;20043;-66
2022/03/30 06:49:03;;;;;;;3.72;1.42;;;13.80;63.30;;;;;;4217134;27;20127;-65
2022/03/30 06:51:25;;;;;;;1.77;1.00;;;13.80;62.70;;;;;;4204410;28;20126;-64
2022/03/30 06:53:47;;;;;;;1.98;1.08;;;13.80;62.70;;;;;;4212983;27;20388;-64
2022/03/30 06:56:11;;;;;;;2.72;1.02;;;13.80;63.40;;;;;;4208983;28;20503;-64
2022/03/30 06:58:33;;;;;;;2.70;0.80;;;13.70;64.00;;;;;;4204514;28;20113;-64
2022/03/30 07:00:56;;;;;;;2.78;0.90;;;13.70;63.20;;;;;;4200671;28;20658;-64
2022/03/30 07:03:22;;;;;;;1.40;0.75;;;13.70;65.30;;;;;;4202878;28;20075;-64
2022/03/30 07:05:44;;;;;;;2.60;0.60;;;13.70;66.10;;;;;;4211360;27;20405;-65
2022/03/30 07:10:46;;;;;;;1.52;0.70;;;13.70;62.70;;;;;;4222578;27;20075;-64
2022/03/30 07:13:10;;;;;;;2.45;1.23;;;13.70;63.30;;;;;;4205964;27;20050;-63
2022/03/30 07:15:32;;;;;;;1.42;0.95;;;13.70;63.70;;;;;;4208628;27;20047;-63
2022/03/30 07:17:56;;;;;;;5.93;3.42;;;13.70;62.50;;;;;;4201713;28;20051;-63
2022/03/30 07:20:24;;;;;;;4.10;1.83;;;13.60;62.20;;;;;;4209830;27;20036;-63
2022/03/30 07:22:48;;;;;;;5.57;1.23;;;13.60;63.50;;;;;;4204443;27;20052;-63
2022/03/30 07:25:11;;;;;;;3.60;0.82;;;13.60;62.70;;;;;;4208878;28;21052;-64
2022/03/30 07:27:32;;;;;;;2.75;0.80;;;13.60;63.40;;;;;;4214705;27;20050;-64
2022/03/30 07:29:56;;;;;;;1.98;0.85;;;13.60;64.70;;;;;;4208978;28;20075;-63
2022/03/30 07:32:19;;;;;;;3.45;1.10;;;13.60;65.60;;;;;;4209157;28;20462;-63
2022/03/30 07:34:41;;;;;;;3.63;1.60;;;13.60;66.10;;;;;;4210409;27;20047;-64
2022/03/30 07:37:04;;;;;;;6.03;2.30;;;13.60;64.10;;;;;;4196972;28;20048;-63
2022/03/30 07:39:27;;;;;;;3.70;0.90;;;13.60;63.80;;;;;;4209439;28;20048;-62
2022/03/30 07:41:49;;;;;;;3.58;0.82;;;13.60;62.90;;;;;;4209361;28;20544;-62
2022/03/30 07:44:12;;;;;;;3.80;0.90;;;13.70;63.60;;;;;;4207936;28;20040;-63
2022/03/30 07:46:58;;;;;;;2.75;0.60;;;13.70;62.40;;;;;;4228089;23;20034;-61
2022/03/30 07:49:21;;;;;;;3.63;0.88;;;13.70;62.30;;;;;;4125382;28;20505;-61
2022/03/30 07:51:43;;;;;;;4.47;0.93;;;13.70;64.30;;;;;;4116247;28;20073;-61
2022/03/30 07:54:06;;;;;;;5.95;1.60;;;13.70;63.50;;;;;;4125118;28;20061;-61
2022/03/30 07:56:28;;;;;;;4.35;1.05;;;13.70;64.30;;;;;;4121048;28;20142;-60
2022/03/30 07:58:50;;;;;;;10.52;3.42;;;13.70;65.00;;;;;;4126670;28;20124;-60
2022/03/30 08:01:12;;;;;;;13.23;6.03;;;13.80;66.20;;;;;;4126054;28;20057;-62
2022/03/30 08:03:36;;;;;;;7.28;2.67;;;13.80;63.90;;;;;;4110184;28;20050;-61
2022/03/30 08:06:00;;;;;;;2.53;1.38;;;13.80;63.10;;;;;;4113604;28;20060;-62
2022/03/30 08:08:22;;;;;;;5.50;0.95;;;13.80;61.10;;;;;;4126083;28;20138;-61
2022/03/30 08:10:44;;;;;;;2.45;0.70;;;13.80;60.30;;;;;;4126476;28;20764;-65
2022/03/30 08:13:07;;;;;;;4.97;1.13;;;13.80;60.90;;;;;;4125982;28;20050;-64
2022/03/30 08:15:30;;;;;;;2.80;1.02;;;13.80;62.80;;;;;;4126162;28;20070;-63
2022/03/30 08:17:54;;;;;;;4.50;0.77;;;13.80;63.80;;;;;;4126330;28;20047;-62
2022/03/30 08:23:02;;;;;;;5.15;1.00;;;13.80;65.00;;;;;;4126066;28;20093;-62
2022/03/30 08:25:24;;;;;;;3.38;1.23;;;13.70;64.00;;;;;;4126194;28;20058;-61
2022/03/30 08:27:47;;;;;;;5.30;1.05;;;13.70;62.60;;;;;;4111656;28;20124;-62
2022/03/30 08:30:09;;;;;;;2.88;1.15;;;13.70;62.80;;;;;;4126316;28;20426;-62
2022/03/30 08:32:32;;;;;;;1.70;0.60;;;13.70;63.40;;;;;;4126387;28;20482;-62
2022/03/30 08:34:56;;;;;;;3.95;0.70;;;13.70;62.70;;;;;;4115250;28;20054;-62
2022/03/30 08:37:21;;;;;;;4.03;1.02;;;13.70;64.20;;;;;;4095461;28;20066;-62
2022/03/30 08:39:48;;;;;;;5.88;0.82;;;13.70;64.90;;;;;;4110305;28;20061;-62
2022/03/30 08:42:13;;;;;;;3.03;0.90;;;13.70;64.70;;;;;;4109755;28;20564;-63
2022/03/30 08:44:36;;;;;;;3.20;1.25;;;13.70;64.90;;;;;;4096433;28;20051;-62
2022/03/30 08:46:58;;;;;;;2.03;0.77;;;13.70;64.50;;;;;;4119921;28;20053;-62
2022/03/30 08:49:20;;;;;;;8.40;1.48;;;13.70;63.60;;;;;;4111109;28;20451;-67
2022/03/30 08:51:47;;;;;;;3.97;0.95;;;13.70;63.00;;;;;;4126221;28;20093;-67
2022/03/30 08:54:12;;;;;;;3.10;1.15;;;13.70;62.90;;;;;;4125695;28;20051;-67
2022/03/30 08:56:36;;;;;;;3.47;0.63;;;13.70;63.10;;;;;;4128588;28;20054;-67
2022/03/30 08:59:02;;;;;;;3.85;1.08;;;13.70;62.40;;;;;;4128765;28;20379;-62
2022/03/30 09:01:24;;;;;;;2.75;1.25;;;13.70;63.80;;;;;;4129283;28;20058;-62
2022/03/30 09:03:56;;;;;;;3.22;0.80;;;13.70;63.30;;;;;;4114773;28;20045;-63
2022/03/30 09:06:30;;;;;;;2.58;0.75;;;13.70;62.60;;;;;;4112410;28;20051;-63
2022/03/30 09:08:57;;;;;;;4.28;0.82;;;13.70;62.20;;;;;;4112253;28;20054;-63
2022/03/30 09:11:20;;;;;;;4.93;1.05;;;13.70;62.50;;;;;;4112941;28;20078;-62
2022/03/30 09:13:42;;;;;;;1.63;0.90;;;13.70;64.00;;;;;;4122922;28;20065;-62
2022/03/30 09:16:09;;;;;;;2.20;0.90;;;13.70;64.60;;;;;;4125217;28;20471;-62
2022/03/30 09:18:32;;;;;;;2.00;1.15;;;13.70;65.10;;;;;;4112320;28;20117;-63
2022/03/30 09:20:57;;;;;;;6.68;1.00;;;13.70;64.70;;;;;;4114236;28;20047;-62
2022/03/30 09:23:19;;;;;;;2.88;1.08;;;13.70;63.50;;;;;;4128654;28;20057;-63
2022/03/30 09:25:45;;;;;;;3.95;1.00;;;13.70;63.80;;;;;;4128497;28;20054;-62
2022/03/30 09:28:10;;;;;;;2.47;0.77;;;13.70;63.60;;;;;;4113708;28;20075;-62
2022/03/30 09:30:32;;;;;;;4.13;1.35;;;13.70;64.80;;;;;;4127761;28;20104;-63
2022/03/30 09:32:56;;;;;;;1.95;0.80;;;13.70;62.40;;;;;;4127574;28;20565;-62
2022/03/30 09:35:25;;;;;;;1.95;1.15;;;13.70;61.90;;;;;;4128126;28;20134;-62
2022/03/30 09:38:00;;;;;;;4.95;1.33;;;13.70;61.50;;;;;;4127984;28;20070;-64
2022/03/30 09:40:22;;;;;;;4.72;1.88;;;13.70;62.60;;;;;;4128090;28;20042;-64
2022/03/30 09:42:44;;;;;;;4.72;1.20;;;13.80;61.60;;;;;;4127943;28;20054;-63
2022/03/30 09:45:09;;;;;;;4.65;1.00;;;13.70;61.50;;;;;;4127969;28;20042;-63
2022/03/30 09:47:38;;;;;;;4.95;1.63;;;13.80;63.20;;;;;;4119682;28;20137;-65
2022/03/30 09:50:00;;;;;;;2.58;1.00;;;13.80;62.80;;;;;;4127421;28;20089;-68
2022/03/30 09:52:25;;;;;;;4.07;1.00;;;13.80;61.30;;;;;;4122214;28;20494;-68
2022/03/30 09:54:50;;;;;;;2.35;1.13;;;13.80;60.70;;;;;;4124714;28;20580;-67
2022/03/30 09:57:14;;;;;;;0.77;0.73;;;13.90;63.50;;;;;;4124203;28;20490;-67
2022/03/30 10:00:03;;;;;;;1.52;0.98;;;14.30;66.20;;;;;;4109528;28;20055;-67
2022/03/30 10:02:34;;;;;;;3.47;0.90;;;15.00;63.00;;;;;;4123165;28;20181;-68
2022/03/30 10:04:58;;;;;;;1.83;0.95;;;15.70;61.00;;;;;;4121949;28;20425;-67
2022/03/30 10:07:21;;;;;;;3.33;1.40;;;16.40;59.40;;;;;;4125542;28;20054;-67
2022/03/30 10:09:45;;;;;;;3.35;1.00;;;17.00;55.40;;;;;;4123142;28;20046;-68
2022/03/30 10:12:08;;;;;;;3.67;1.30;;;17.50;56.20;;;;;;4124770;28;20054;-68
2022/03/30 10:14:30;;;;;;;3.90;0.95;;;17.90;52.40;;;;;;4125263;28;20478;-69
2022/03/30 10:16:52;;;;;;;3.08;1.15;;;18.20;52.70;;;;;;4124220;28;20490;-69
2022/03/30 10:19:16;;;;;;;2.00;0.80;;;18.40;51.40;;;;;;4122994;28;20050;-69
2022/03/30 10:21:49;;;;;;;2.78;1.50;;;18.50;51.10;;;;;;4126663;28;20046;-68
2022/03/30 10:24:32;;;;;;;2.25;1.08;;;18.50;50.30;;;;;;4126842;28;20042;-68
2022/03/30 10:27:07;;;;;;;2.50;1.05;;;18.40;50.20;;;;;;4126646;28;20085;-68
2022/03/30 10:29:31;;;;;;;4.30;1.00;;;18.20;51.00;;;;;;4128903;28;20058;-68
2022/03/30 10:32:15;;;;;;;5.57;1.30;;;18.10;50.70;;;;;;4121112;28;20054;-68
2022/03/30 10:34:51;;;;;;;1.13;0.80;;;17.90;52.20;;;;;;4124925;28;20061;-69
2022/03/30 10:37:13;;;;;;;1.38;0.80;;;17.70;52.80;;;;;;4123345;28;20069;-68
2022/03/30 10:39:35;;;;;;;4.47;1.15;;;17.50;54.20;;;;;;4124787;28;20056;-69
2022/03/30 10:42:14;;;;;;;2.08;0.85;;;17.40;55.00;;;;;;4124633;28;20060;-68
2022/03/30 10:44:42;;;;;;;2.22;1.45;;;17.30;55.80;;;;;;4122339;28;20066;-69
2022/03/30 10:47:12;;;;;;;2.90;0.70;;;17.10;55.70;;;;;;4125026;28;20046;-68
2022/03/30 10:49:44;;;;;;;3.83;1.10;;;17.00;55.30;;;;;;4123868;28;20054;-69
2022/03/30 10:52:26;;;;;;;2.40;0.90;;;16.90;56.80;;;;;;4126682;28;20053;-68
2022/03/30 10:54:50;;;;;;;3.63;0.80;;;16.80;56.90;;;;;;4122613;28;20038;-69
2022/03/30 10:57:32;;;;;;;3.92;1.23;;;16.70;57.40;;;;;;4126586;28;20050;-68
2022/03/30 11:00:08;;;;;;;3.58;1.30;;;16.80;56.80;;;;;;4111069;28;20492;-69
2022/03/30 11:02:41;;;;;;;4.45;1.27;;;16.90;54.90;;;;;;4100396;28;20446;-69
2022/03/30 11:05:11;;;;;;;3.78;1.10;;;17.00;53.70;;;;;;4122023;28;20051;-69
2022/03/30 11:07:40;;;;;;;5.60;1.30;;;17.00;54.30;;;;;;4118065;28;20054;-69
2022/03/30 11:10:16;;;;;;;3.97;1.67;;;17.00;53.20;;;;;;4126883;28;20054;-69
2022/03/30 11:12:57;;;;;;;8.02;1.48;;;17.00;55.30;;;;;;4126989;28;20478;-69
2022/03/30 11:15:19;;;;;;;2.92;1.00;;;16.90;53.10;;;;;;4111917;28;20457;-69
2022/03/30 11:17:41;;;;;;;2.97;0.82;;;16.90;54.80;;;;;;4125987;28;20074;-69
2022/03/30 11:20:08;;;;;;;3.95;1.25;;;17.00;56.00;;;;;;4126811;28;20046;-64
2022/03/30 11:22:33;;;;;;;4.25;0.90;;;17.00;55.10;;;;;;4126373;28;20055;-64
2022/03/30 11:25:07;;;;;;;4.95;1.02;;;17.10;55.40;;;;;;4126594;28;20159;-64
2022/03/30 11:27:29;;;;;;;3.65;0.90;;;17.20;54.80;;;;;;4126124;28;20640;-64
2022/03/30 11:30:00;;;;;;;2.50;0.80;;;17.20;55.60;;;;;;4126236;28;20061;-63
2022/03/30 11:32:56;;;;;;;2.33;0.98;;;17.30;55.40;;;;;;4126092;28;20058;-63
2022/03/30 11:35:20;;;;;;;3.13;0.50;;;17.30;54.00;;;;;;4126397;28;20057;-63
2022/03/30 11:37:46;;;;;;;3.95;1.00;;;17.30;52.90;;;;;;4125679;28;20054;-65
2022/03/30 11:40:10;;;;;;;3.22;0.57;;;17.20;54.00;;;;;;4121833;28;20516;-65
2022/03/30 11:42:36;;;;;;;2.13;0.70;;;17.20;54.10;;;;;;4122238;28;20052;-65
2022/03/30 11:45:15;;;;;;;5.97;1.10;;;17.10;55.60;;;;;;4125944;28;20054;-65
2022/03/30 11:47:38;;;;;;;3.75;0.60;;;17.00;55.30;;;;;;4110457;28;20086;-65
2022/03/30 11:50:07;;;;;;;2.42;0.90;;;16.90;51.80;;;;;;4127169;28;20153;-65
2022/03/30 11:52:29;;;;;;;2.03;0.88;;;16.80;51.50;;;;;;4111089;28;20070;-64
2022/03/30 11:54:56;;;;;;;4.60;0.98;;;16.80;52.30;;;;;;4092880;28;20051;-65
2022/03/30 11:57:20;;;;;;;2.58;0.60;;;16.70;55.10;;;;;;4109970;28;20144;-65
2022/03/30 11:59:42;;;;;;;1.70;0.73;;;16.70;55.60;;;;;;4123397;28;20057;-65
2022/03/30 12:02:04;;;;;;;2.35;0.80;;;16.80;50.00;;;;;;4111569;28;20054;-65
2022/03/30 12:04:31;;;;;;;2.63;0.60;;;16.90;49.80;;;;;;4090209;28;20063;-65
2022/03/30 12:06:54;;;;;;;2.88;0.80;;;17.00;53.20;;;;;;4109145;28;20043;-63
2022/03/30 12:09:16;;;;;;;3.13;0.93;;;17.00;51.90;;;;;;4118185;28;20065;-69
2022/03/30 12:11:41;;;;;;;4.30;0.70;;;17.00;53.50;;;;;;4124949;28;20065;-69
2022/03/30 12:14:05;;;;;;;2.60;0.95;;;17.00;54.40;;;;;;4125711;28;20105;-69
2022/03/30 12:16:28;;;;;;;4.55;1.00;;;17.00;53.60;;;;;;4125412;28;20491;-69
2022/03/30 12:18:52;;;;;;;3.75;0.60;;;17.00;49.40;;;;;;4125448;28;20532;-68
2022/03/30 12:21:15;;;;;;;1.20;0.52;;;17.00;52.20;;;;;;4126096;28;20456;-69
2022/03/30 12:23:38;;;;;;;2.53;0.75;;;17.00;53.40;;;;;;4125884;28;20048;-68
2022/03/30 12:26:01;;;;;;;3.75;0.75;;;16.90;50.80;;;;;;4126100;28;20054;-69
2022/03/30 12:28:34;;;;;;;1.65;0.73;;;16.90;53.00;;;;;;4125778;28;20073;-68
2022/03/30 12:30:56;;;;;;;3.53;0.80;;;16.90;52.10;;;;;;4127046;28;20046;-69
2022/03/30 12:33:18;;;;;;;1.35;0.50;;;16.90;52.20;;;;;;4128979;28;20478;-64
2022/03/30 12:35:41;;;;;;;2.00;0.93;;;16.90;52.00;;;;;;4128541;28;20105;-64